createdAt,value
2023-04-23T00:01:03.151Z,135
2023-04-23T00:02:43.525Z,112.5
2023-04-23T00:04:23.911Z,112.5
2023-04-23T00:06:04.105Z,135
2023-04-23T00:07:44.410Z,112.5
2023-04-23T00:09:24.688Z,157.5
2023-04-23T00:11:05.063Z,180
2023-04-23T00:12:45.385Z,202.5
2023-04-23T00:14:25.728Z,202.5
2023-04-23T00:16:06.060Z,180
2023-04-23T00:17:46.462Z,157.5
2023-04-23T00:19:26.769Z,180
2023-04-23T00:21:07.080Z,202.5
2023-04-23T00:22:47.436Z,180
2023-04-23T00:24:27.753Z,135
2023-04-23T00:26:08.148Z,157.5
2023-04-23T00:27:48.431Z,157.5
2023-04-23T00:29:28.798Z,202.5
2023-04-23T00:31:09.108Z,202.5
2023-04-23T00:32:49.469Z,225
2023-04-23T00:34:29.749Z,225
2023-04-23T00:36:10.043Z,157.5
2023-04-23T00:37:50.340Z,337.5
2023-04-23T00:39:30.707Z,225
2023-04-23T00:41:11.004Z,67.5
2023-04-23T00:42:51.456Z,0
2023-04-23T00:44:31.710Z,0
2023-04-23T00:46:12.084Z,90
2023-04-23T00:47:52.377Z,315
2023-04-23T00:49:32.606Z,292.5
2023-04-23T00:51:12.941Z,202.5
2023-04-23T00:52:53.238Z,292.5
2023-04-23T00:54:33.588Z,292.5
2023-04-23T00:56:13.966Z,292.5
2023-04-23T00:57:54.313Z,292.5
2023-04-23T00:59:34.674Z,292.5
2023-04-23T01:01:15.110Z,270
2023-04-23T01:02:55.380Z,292.5
2023-04-23T01:04:35.577Z,315
2023-04-23T01:06:15.857Z,225
2023-04-23T01:07:56.183Z,225
2023-04-23T01:09:36.540Z,270
2023-04-23T01:11:16.825Z,225
2023-04-23T01:12:57.139Z,270
2023-04-23T01:14:37.513Z,202.5
2023-04-23T01:16:17.960Z,225
2023-04-23T01:17:58.190Z,315
2023-04-23T01:19:38.604Z,292.5
2023-04-23T01:21:18.912Z,247.5
2023-04-23T01:22:59.237Z,247.5
2023-04-23T01:24:39.735Z,157.5
2023-04-23T01:26:19.877Z,247.5
2023-04-23T01:28:00.188Z,247.5
2023-04-23T01:29:40.584Z,180
2023-04-23T01:31:21.040Z,225
2023-04-23T01:33:01.334Z,112.5
2023-04-23T01:34:41.967Z,202.5
2023-04-23T01:36:22.056Z,180
2023-04-23T01:38:02.375Z,22.5
2023-04-23T01:39:42.781Z,45
2023-04-23T01:41:23.154Z,22.5
2023-04-23T01:43:03.504Z,22.5
2023-04-23T01:44:43.799Z,225
2023-04-23T01:46:24.238Z,270
2023-04-23T01:48:04.532Z,247.5
2023-04-23T01:49:44.889Z,45
2023-04-23T01:51:25.230Z,157.5
2023-04-23T01:53:05.578Z,90
2023-04-23T01:54:45.933Z,22.5
2023-04-23T01:56:26.227Z,67.5
2023-04-23T01:58:06.571Z,337.5
2023-04-23T01:59:46.916Z,22.5
2023-04-23T02:01:27.361Z,0
2023-04-23T02:03:07.909Z,0
2023-04-23T02:04:48.002Z,0
2023-04-23T02:06:28.441Z,22.5
2023-04-23T02:09:49.110Z,90
2023-04-23T02:11:29.424Z,337.5
2023-04-23T02:14:50.228Z,112.5
2023-04-23T02:16:30.538Z,22.5
2023-04-23T02:18:10.802Z,45
2023-04-23T02:19:51.092Z,45
2023-04-23T02:21:31.411Z,45
2023-04-23T02:23:11.802Z,45
2023-04-23T02:24:52.202Z,22.5
2023-04-23T02:26:32.523Z,22.5
2023-04-23T02:28:12.847Z,135
2023-04-23T02:29:53.139Z,135
2023-04-23T02:31:33.434Z,112.5
2023-04-23T02:33:13.874Z,112.5
2023-04-23T02:34:54.224Z,135
2023-04-23T02:36:34.545Z,135
2023-04-23T02:38:14.833Z,135
2023-04-23T02:39:55.180Z,135
2023-04-23T02:41:35.474Z,180
2023-04-23T02:43:15.809Z,112.5
2023-04-23T02:44:56.147Z,90
2023-04-23T02:46:36.564Z,90
2023-04-23T02:48:16.897Z,45
2023-04-23T02:49:57.215Z,135
2023-04-23T02:51:37.537Z,135
2023-04-23T02:53:17.891Z,135
2023-04-23T02:54:58.263Z,90
2023-04-23T02:56:38.648Z,90
2023-04-23T02:58:18.997Z,135
2023-04-23T02:59:59.344Z,135
2023-04-23T03:01:39.664Z,202.5
2023-04-23T03:03:20.211Z,202.5
2023-04-23T03:05:00.385Z,157.5
2023-04-23T03:06:40.715Z,157.5
2023-04-23T03:08:21.043Z,112.5
2023-04-23T03:10:01.311Z,157.5
2023-04-23T03:11:41.733Z,135
2023-04-23T03:13:22.066Z,135
2023-04-23T03:15:02.505Z,157.5
2023-04-23T03:16:42.839Z,135
2023-04-23T03:18:23.086Z,135
2023-04-23T03:20:03.367Z,112.5
2023-04-23T03:21:43.677Z,112.5
2023-04-23T03:23:24.028Z,180
2023-04-23T03:25:04.400Z,157.5
2023-04-23T03:26:44.717Z,135
2023-04-23T03:28:25.059Z,180
2023-04-23T03:30:05.487Z,180
2023-04-23T03:31:45.862Z,202.5
2023-04-23T03:33:26.303Z,180
2023-04-23T03:35:06.697Z,292.5
2023-04-23T03:36:46.989Z,0
2023-04-23T03:38:27.332Z,292.5
2023-04-23T03:40:07.844Z,157.5
2023-04-23T03:41:48.008Z,247.5
2023-04-23T03:43:28.354Z,292.5
2023-04-23T03:45:08.721Z,180
2023-04-23T03:46:48.990Z,270
2023-04-23T03:48:29.392Z,315
2023-04-23T03:50:09.687Z,202.5
2023-04-23T03:51:49.952Z,315
2023-04-23T03:53:30.275Z,270
2023-04-23T03:55:10.562Z,315
2023-04-23T03:56:50.885Z,315
2023-04-23T03:58:31.192Z,225
2023-04-23T04:00:11.455Z,112.5
2023-04-23T04:01:51.804Z,292.5
2023-04-23T04:03:32.290Z,315
2023-04-23T04:05:12.615Z,292.5
2023-04-23T04:06:52.706Z,292.5
2023-04-23T04:08:32.994Z,292.5
2023-04-23T04:10:13.313Z,270
2023-04-23T04:11:53.674Z,270
2023-04-23T04:13:34.029Z,247.5
2023-04-23T04:15:14.432Z,247.5
2023-04-23T04:16:54.775Z,315
2023-04-23T04:18:35.066Z,315
2023-04-23T04:20:15.398Z,337.5
2023-04-23T04:21:55.783Z,292.5
2023-04-23T04:23:36.037Z,67.5
2023-04-23T04:25:16.404Z,337.5
2023-04-23T04:26:56.737Z,247.5
2023-04-23T04:28:36.977Z,315
2023-04-23T04:30:17.363Z,315
2023-04-23T04:31:57.685Z,292.5
2023-04-23T04:33:38.020Z,337.5
2023-04-23T04:35:18.398Z,337.5
2023-04-23T04:36:58.719Z,315
2023-04-23T04:38:39.024Z,292.5
2023-04-23T04:40:19.383Z,337.5
2023-04-23T04:41:59.632Z,315
2023-04-23T04:43:39.995Z,202.5
2023-04-23T04:45:20.384Z,270
2023-04-23T04:47:00.861Z,337.5
2023-04-23T04:48:40.992Z,270
2023-04-23T04:50:21.297Z,292.5
2023-04-23T04:52:01.653Z,247.5
2023-04-23T04:53:41.995Z,225
2023-04-23T04:55:22.442Z,247.5
2023-04-23T04:57:02.811Z,202.5
2023-04-23T04:58:43.156Z,225
2023-04-23T05:00:23.570Z,270
2023-04-23T05:02:04.022Z,225
2023-04-23T05:03:44.459Z,315
2023-04-23T05:05:24.622Z,292.5
2023-04-23T05:07:04.963Z,337.5
2023-04-23T05:08:45.308Z,292.5
2023-04-23T05:10:25.634Z,292.5
2023-04-23T05:12:05.956Z,315
2023-04-23T05:13:46.281Z,315
2023-04-23T05:15:26.663Z,292.5
2023-04-23T05:17:06.952Z,292.5
2023-04-23T05:18:47.262Z,315
2023-04-23T05:20:27.597Z,292.5
2023-04-23T05:22:07.982Z,315
2023-04-23T05:23:48.266Z,90
2023-04-23T05:25:28.612Z,90
2023-04-23T05:27:08.962Z,157.5
2023-04-23T05:28:49.347Z,157.5
2023-04-23T05:30:29.670Z,90
2023-04-23T05:32:10.140Z,22.5
2023-04-23T05:33:51.006Z,22.5
2023-04-23T05:35:30.754Z,45
2023-04-23T05:37:11.090Z,135
2023-04-23T05:38:51.375Z,157.5
2023-04-23T05:40:31.671Z,292.5
2023-04-23T05:42:11.987Z,315
2023-04-23T05:43:52.293Z,315
2023-04-23T05:45:32.618Z,292.5
2023-04-23T05:47:12.905Z,67.5
2023-04-23T05:48:53.216Z,135
2023-04-23T05:50:33.501Z,270
2023-04-23T05:52:13.771Z,202.5
2023-04-23T05:53:54.082Z,180
2023-04-23T05:55:34.411Z,180
2023-04-23T05:57:14.736Z,180
2023-04-23T05:58:55.121Z,112.5
2023-04-23T06:00:35.562Z,112.5
2023-04-23T06:02:15.884Z,112.5
2023-04-23T06:03:56.391Z,180
2023-04-23T06:05:36.584Z,180
2023-04-23T06:07:16.960Z,202.5
2023-04-23T06:08:57.248Z,180
2023-04-23T06:10:37.571Z,180
2023-04-23T06:12:17.873Z,157.5
2023-04-23T06:13:58.176Z,45
2023-04-23T06:15:38.559Z,157.5
2023-04-23T06:17:18.791Z,247.5
2023-04-23T06:18:59.120Z,90
2023-04-23T06:20:39.379Z,67.5
2023-04-23T06:22:19.708Z,0
2023-04-23T06:24:00.026Z,112.5
2023-04-23T06:25:40.319Z,135
2023-04-23T06:27:20.653Z,180
2023-04-23T06:29:01.018Z,180
2023-04-23T06:30:41.412Z,90
2023-04-23T06:32:21.752Z,180
2023-04-23T06:34:02.112Z,112.5
2023-04-23T06:35:42.491Z,135
2023-04-23T06:37:22.791Z,157.5
2023-04-23T06:39:03.153Z,112.5
2023-04-23T06:40:43.459Z,90
2023-04-23T06:42:23.874Z,90
2023-04-23T06:44:04.235Z,180
2023-04-23T06:45:44.512Z,112.5
2023-04-23T06:47:24.889Z,135
2023-04-23T06:49:05.219Z,180
2023-04-23T06:50:45.544Z,90
2023-04-23T06:52:25.876Z,112.5
2023-04-23T06:54:06.216Z,45
2023-04-23T06:55:46.569Z,112.5
2023-04-23T06:57:26.958Z,90
2023-04-23T06:59:07.285Z,112.5
2023-04-23T07:00:47.678Z,180
2023-04-23T07:02:27.990Z,90
2023-04-23T07:04:08.389Z,112.5
2023-04-23T07:05:48.595Z,90
2023-04-23T07:07:28.941Z,112.5
2023-04-23T07:09:09.295Z,112.5
2023-04-23T07:10:49.764Z,135
2023-04-23T07:12:30.162Z,90
2023-04-23T07:14:10.533Z,112.5
2023-04-23T07:15:50.890Z,90
2023-04-23T07:17:31.371Z,112.5
2023-04-23T07:19:11.663Z,112.5
2023-04-23T07:20:52.014Z,135
2023-04-23T07:22:32.304Z,135
2023-04-23T07:24:12.679Z,180
2023-04-23T07:25:53.071Z,112.5
2023-04-23T07:27:33.432Z,135
2023-04-23T07:29:13.792Z,135
2023-04-23T07:30:54.159Z,112.5
2023-04-23T07:32:34.501Z,112.5
2023-04-23T07:34:14.887Z,157.5
2023-04-23T07:35:55.213Z,112.5
2023-04-23T07:37:35.598Z,135
2023-04-23T07:39:15.924Z,180
2023-04-23T07:40:56.234Z,180
2023-04-23T07:42:36.587Z,180
2023-04-23T07:44:17.005Z,135
2023-04-23T07:45:57.499Z,112.5
2023-04-23T07:47:37.756Z,180
2023-04-23T07:49:18.082Z,112.5
2023-04-23T07:50:58.420Z,90
2023-04-23T07:52:38.844Z,180
2023-04-23T07:54:19.225Z,112.5
2023-04-23T07:55:59.581Z,157.5
2023-04-23T07:57:39.940Z,157.5
2023-04-23T07:59:20.327Z,180
2023-04-23T08:01:00.676Z,157.5
2023-04-23T08:02:41.266Z,135
2023-04-23T08:04:21.915Z,112.5
2023-04-23T08:06:01.720Z,112.5
2023-04-23T08:07:42.055Z,112.5
2023-04-23T08:09:22.414Z,112.5
2023-04-23T08:11:02.645Z,112.5
2023-04-23T08:12:42.947Z,157.5
2023-04-23T08:14:23.281Z,112.5
2023-04-23T08:15:21.714Z,112.5
2023-04-23T08:17:01.971Z,112.5
2023-04-23T08:18:46.138Z,135
2023-04-23T08:20:22.831Z,135
2023-04-23T08:22:02.986Z,112.5
2023-04-23T08:23:43.382Z,112.5
2023-04-23T08:25:23.707Z,135
2023-04-23T08:27:04.015Z,135
2023-04-23T08:28:44.453Z,180
2023-04-23T08:30:24.911Z,90
2023-04-23T08:32:05.346Z,112.5
2023-04-23T08:33:45.703Z,112.5
2023-04-23T08:35:26.089Z,112.5
2023-04-23T08:37:09.945Z,112.5
2023-04-23T08:38:46.799Z,112.5
2023-04-23T08:40:27.084Z,112.5
2023-04-23T08:42:07.455Z,157.5
2023-04-23T08:43:47.955Z,112.5
2023-04-23T08:45:28.208Z,135
2023-04-23T08:47:08.538Z,112.5
2023-04-23T08:48:48.878Z,157.5
2023-04-23T08:50:29.203Z,112.5
2023-04-23T08:52:09.561Z,112.5
2023-04-23T08:53:49.980Z,202.5
2023-04-23T08:55:30.392Z,180
2023-04-23T08:57:10.734Z,180
2023-04-23T08:58:51.117Z,112.5
2023-04-23T09:00:31.562Z,157.5
2023-04-23T09:02:11.838Z,180
2023-04-23T09:03:52.243Z,112.5
2023-04-23T09:05:32.571Z,202.5
2023-04-23T09:07:12.968Z,112.5
2023-04-23T09:08:53.299Z,180
2023-04-23T09:10:33.684Z,225
2023-04-23T09:12:14.044Z,135
2023-04-23T09:13:54.402Z,135
2023-04-23T09:15:34.793Z,135
2023-04-23T09:17:15.127Z,112.5
2023-04-23T09:18:55.425Z,112.5
2023-04-23T09:20:35.853Z,135
2023-04-23T09:22:16.210Z,112.5
2023-04-23T09:23:56.550Z,112.5
2023-04-23T09:25:36.851Z,135
2023-04-23T09:27:17.246Z,112.5
2023-04-23T09:28:57.544Z,180
2023-04-23T09:30:37.961Z,135
2023-04-23T09:32:18.401Z,157.5
2023-04-23T09:33:58.675Z,202.5
2023-04-23T09:35:40.743Z,202.5
2023-04-23T09:37:19.367Z,180
2023-04-23T09:38:59.710Z,225
2023-04-23T09:40:40.027Z,157.5
2023-04-23T09:42:20.387Z,225
2023-04-23T09:44:00.644Z,112.5
2023-04-23T09:45:41.035Z,225
2023-04-23T09:47:22.598Z,247.5
2023-04-23T09:49:01.721Z,180
2023-04-23T09:50:42.037Z,180
2023-04-23T09:52:22.446Z,157.5
2023-04-23T09:54:02.770Z,157.5
2023-04-23T09:55:43.207Z,135
2023-04-23T09:57:23.551Z,180
2023-04-23T09:59:03.830Z,157.5
2023-04-23T10:00:44.201Z,180
2023-04-23T10:02:24.685Z,202.5
2023-04-23T10:04:05.090Z,180
2023-04-23T10:06:00.254Z,157.5
2023-04-23T10:07:25.624Z,135
2023-04-23T10:09:06.053Z,157.5
2023-04-23T10:11:00.081Z,157.5
2023-04-23T10:12:41.102Z,180
2023-04-23T10:14:07.079Z,180
2023-04-23T10:15:47.467Z,180
2023-04-23T10:17:27.939Z,180
2023-04-23T10:19:08.130Z,135
2023-04-23T10:20:48.438Z,157.5
2023-04-23T10:22:28.821Z,157.5
2023-04-23T10:24:09.162Z,180
2023-04-23T10:25:49.501Z,180
2023-04-23T10:27:44.553Z,157.5
2023-04-23T10:29:10.228Z,157.5
2023-04-23T10:30:50.613Z,135
2023-04-23T10:32:30.974Z,180
2023-04-23T10:34:11.330Z,180
2023-04-23T10:35:51.604Z,180
2023-04-23T10:37:31.931Z,180
2023-04-23T10:39:12.316Z,135
2023-04-23T10:40:52.576Z,180
2023-04-23T10:42:32.925Z,135
2023-04-23T10:44:15.965Z,180
2023-04-23T10:45:53.513Z,157.5
2023-04-23T10:47:33.852Z,180
2023-04-23T10:49:14.143Z,157.5
2023-04-23T10:52:34.919Z,180
2023-04-23T10:54:15.294Z,135
2023-04-23T10:55:55.632Z,135
2023-04-23T10:57:36.042Z,180
2023-04-23T10:59:16.473Z,157.5
2023-04-23T11:00:56.780Z,135
2023-04-23T11:02:37.224Z,112.5
2023-04-23T11:04:17.931Z,112.5
2023-04-23T11:05:57.843Z,180
2023-04-23T11:07:38.126Z,157.5
2023-04-23T11:09:18.433Z,157.5
2023-04-23T11:10:58.745Z,225
2023-04-23T11:12:39.048Z,180
2023-04-23T11:14:19.388Z,180
2023-04-23T11:15:59.708Z,135
2023-04-23T11:17:39.921Z,157.5
2023-04-23T11:19:20.825Z,135
2023-04-23T11:21:00.585Z,157.5
2023-04-23T11:22:40.863Z,202.5
2023-04-23T11:24:21.195Z,180
2023-04-23T11:26:01.483Z,180
2023-04-23T11:27:41.744Z,180
2023-04-23T11:29:22.074Z,157.5
2023-04-23T11:31:02.394Z,157.5
2023-04-23T11:32:42.804Z,180
2023-04-23T11:34:23.004Z,157.5
2023-04-23T11:36:03.270Z,112.5
2023-04-23T11:37:43.678Z,180
2023-04-23T11:39:24.034Z,180
2023-04-23T11:41:04.387Z,157.5
2023-04-23T11:42:44.622Z,180
2023-04-23T11:44:25.007Z,180
2023-04-23T11:46:05.376Z,225
2023-04-23T11:47:45.678Z,180
2023-04-23T11:49:25.986Z,202.5
2023-04-23T11:51:06.350Z,225
2023-04-23T11:52:46.657Z,202.5
2023-04-23T11:54:26.998Z,180
2023-04-23T11:56:07.415Z,180
2023-04-23T11:57:47.722Z,202.5
2023-04-23T11:59:27.989Z,202.5
2023-04-23T12:01:08.331Z,202.5
2023-04-23T12:02:48.762Z,180
2023-04-23T12:04:29.171Z,202.5
2023-04-23T12:06:09.344Z,180
2023-04-23T12:07:49.743Z,225
2023-04-23T12:09:30.104Z,202.5
2023-04-23T12:11:10.413Z,225
2023-04-23T12:12:50.801Z,180
2023-04-23T12:14:31.278Z,202.5
2023-04-23T12:16:11.642Z,247.5
2023-04-23T12:17:51.955Z,247.5
2023-04-23T12:19:32.304Z,270
2023-04-23T12:21:12.712Z,225
2023-04-23T12:22:53.009Z,157.5
2023-04-23T12:24:33.391Z,157.5
2023-04-23T12:26:13.708Z,202.5
2023-04-23T12:27:54.049Z,202.5
2023-04-23T12:29:34.313Z,202.5
2023-04-23T12:31:14.699Z,225
2023-04-23T12:32:55.065Z,202.5
2023-04-23T12:34:35.327Z,180
2023-04-23T12:36:15.637Z,180
2023-04-23T12:37:56.060Z,202.5
2023-04-23T12:39:36.448Z,180
2023-04-23T12:41:16.787Z,202.5
2023-04-23T12:42:57.200Z,180
2023-04-23T12:44:37.440Z,157.5
2023-04-23T12:46:17.746Z,157.5
2023-04-23T12:47:58.167Z,180
2023-04-23T12:49:38.487Z,135
2023-04-23T12:51:18.853Z,157.5
2023-04-23T12:52:59.253Z,135
2023-04-23T12:54:39.521Z,180
2023-04-23T12:56:20.007Z,135
2023-04-23T12:58:00.334Z,180
2023-04-23T12:59:40.881Z,112.5
2023-04-23T13:01:21.025Z,135
2023-04-23T13:03:01.502Z,135
2023-04-23T13:04:41.781Z,180
2023-04-23T13:06:22.127Z,180
2023-04-23T13:08:02.538Z,180
2023-04-23T13:09:43.100Z,157.5
2023-04-23T13:11:23.078Z,157.5
2023-04-23T13:13:03.354Z,157.5
2023-04-23T13:14:43.631Z,135
2023-04-23T13:16:23.991Z,135
2023-04-23T13:18:04.313Z,157.5
2023-04-23T13:19:44.601Z,135
2023-04-23T13:21:26.248Z,135
2023-04-23T13:23:05.164Z,135
2023-04-23T13:24:45.468Z,135
2023-04-23T13:26:25.788Z,157.5
2023-04-23T13:28:06.021Z,135
2023-04-23T13:29:46.388Z,135
2023-04-23T13:31:26.667Z,135
2023-04-23T13:33:07.005Z,157.5
2023-04-23T13:34:47.273Z,135
2023-04-23T13:36:27.671Z,135
2023-04-23T13:38:08.029Z,135
2023-04-23T13:39:48.427Z,135
2023-04-23T13:41:28.792Z,157.5
2023-04-23T13:43:09.194Z,112.5
2023-04-23T13:44:49.567Z,112.5
2023-04-23T13:46:30.096Z,135
2023-04-23T13:48:10.326Z,135
2023-04-23T13:49:50.651Z,112.5
2023-04-23T13:51:34.707Z,112.5
2023-04-23T13:53:11.366Z,112.5
2023-04-23T13:54:51.742Z,135
2023-04-23T13:56:32.206Z,112.5
2023-04-23T13:58:12.535Z,157.5
2023-04-23T13:59:52.919Z,135
2023-04-23T14:01:33.335Z,135
2023-04-23T14:03:13.653Z,112.5
2023-04-23T14:04:54.001Z,112.5
2023-04-23T14:06:34.115Z,135
2023-04-23T14:08:14.454Z,112.5
2023-04-23T14:09:54.830Z,135
2023-04-23T14:11:35.271Z,112.5
2023-04-23T14:13:15.639Z,112.5
2023-04-23T14:14:55.913Z,157.5
2023-04-23T14:16:36.309Z,180
2023-04-23T14:18:16.702Z,112.5
2023-04-23T14:19:57.033Z,135
2023-04-23T14:21:37.322Z,135
2023-04-23T14:23:17.618Z,180
2023-04-23T14:24:58.045Z,135
2023-04-23T14:28:18.758Z,157.5
2023-04-23T14:29:59.152Z,157.5
2023-04-23T14:31:39.525Z,135
2023-04-23T14:33:19.830Z,135
2023-04-23T14:35:00.159Z,157.5
2023-04-23T14:36:40.467Z,135
2023-04-23T14:38:20.788Z,157.5
2023-04-23T14:40:01.145Z,112.5
2023-04-23T14:41:41.479Z,135
2023-04-23T14:43:21.766Z,180
2023-04-23T14:45:02.069Z,135
2023-04-23T14:46:42.441Z,157.5
2023-04-23T14:48:22.839Z,157.5
2023-04-23T14:50:03.219Z,180
2023-04-23T14:51:43.566Z,180
2023-04-23T14:53:23.909Z,202.5
2023-04-23T14:55:04.225Z,135
2023-04-23T14:56:44.584Z,202.5
2023-04-23T14:58:24.921Z,180
2023-04-23T15:00:05.302Z,135
2023-04-23T15:01:45.619Z,112.5
2023-04-23T15:03:26.022Z,157.5
2023-04-23T15:05:06.318Z,157.5
2023-04-23T15:06:46.631Z,202.5
2023-04-23T15:08:26.948Z,180
2023-04-23T15:10:07.352Z,202.5
2023-04-23T15:11:47.697Z,180
2023-04-23T15:13:28.076Z,202.5
2023-04-23T15:15:08.397Z,225
2023-04-23T15:16:50.027Z,202.5
2023-04-23T15:18:29.104Z,202.5
2023-04-23T15:20:09.429Z,202.5
2023-04-23T15:21:49.784Z,202.5
2023-04-23T15:23:30.183Z,180
2023-04-23T15:25:10.510Z,202.5
2023-04-23T15:26:50.891Z,157.5
2023-04-23T15:28:31.237Z,202.5
2023-04-23T15:30:11.505Z,202.5
2023-04-23T15:31:51.938Z,202.5
2023-04-23T15:33:32.289Z,180
2023-04-23T15:35:12.672Z,225
2023-04-23T15:36:52.988Z,202.5
2023-04-23T15:38:33.291Z,180
2023-04-23T15:40:13.634Z,202.5
2023-04-23T15:41:53.952Z,180
2023-04-23T15:43:34.261Z,180
2023-04-23T15:45:14.574Z,112.5
2023-04-23T15:46:54.913Z,157.5
2023-04-23T15:48:35.330Z,180
2023-04-23T15:50:15.603Z,180
2023-04-23T15:51:55.996Z,202.5
2023-04-23T15:53:36.293Z,180
2023-04-23T15:55:16.682Z,180
2023-04-23T15:56:57.052Z,180
2023-04-23T15:58:37.393Z,112.5
2023-04-23T16:00:17.855Z,180
2023-04-23T16:01:58.158Z,157.5
2023-04-23T16:03:38.640Z,112.5
2023-04-23T16:05:18.953Z,112.5
2023-04-23T16:06:59.283Z,135
2023-04-23T16:08:39.661Z,112.5
2023-04-23T16:10:19.996Z,112.5
2023-04-23T16:12:00.393Z,135
2023-04-23T16:13:40.747Z,112.5
2023-04-23T16:15:21.122Z,112.5
2023-04-23T16:17:01.614Z,112.5
2023-04-23T16:18:41.932Z,112.5
2023-04-23T16:20:22.274Z,112.5
2023-04-23T16:22:02.734Z,112.5
2023-04-23T16:23:43.088Z,112.5
2023-04-23T16:25:23.359Z,112.5
2023-04-23T16:27:03.661Z,112.5
2023-04-23T16:28:44.553Z,112.5
2023-04-23T16:30:24.422Z,135
2023-04-23T16:32:04.879Z,157.5
2023-04-23T16:33:45.296Z,112.5
2023-04-23T16:35:25.640Z,90
2023-04-23T16:37:06.059Z,90
2023-04-23T16:38:48.047Z,112.5
2023-04-23T16:40:26.780Z,112.5
2023-04-23T16:42:07.057Z,112.5
2023-04-23T16:43:47.482Z,112.5
2023-04-23T16:45:27.737Z,112.5
2023-04-23T16:47:08.058Z,112.5
2023-04-23T16:48:48.471Z,112.5
2023-04-23T16:50:28.855Z,90
2023-04-23T16:52:09.229Z,135
2023-04-23T16:53:49.556Z,112.5
2023-04-23T16:55:29.911Z,112.5
2023-04-23T16:57:10.271Z,135
2023-04-23T16:58:50.652Z,135
2023-04-23T17:00:31.006Z,180
2023-04-23T17:02:11.527Z,157.5
2023-04-23T17:03:51.878Z,112.5
2023-04-23T17:05:32.124Z,135
2023-04-23T17:07:12.592Z,135
2023-04-23T17:08:53.022Z,112.5
2023-04-23T17:10:33.401Z,112.5
2023-04-23T17:12:13.745Z,180
2023-04-23T17:13:54.090Z,112.5
2023-04-23T17:15:34.472Z,135
2023-04-23T17:17:14.891Z,90
2023-04-23T17:18:55.326Z,112.5
2023-04-23T17:20:35.683Z,112.5
2023-04-23T17:22:16.128Z,112.5
2023-04-23T17:23:56.431Z,112.5
2023-04-23T17:25:36.895Z,90
2023-04-23T17:27:17.280Z,45
2023-04-23T17:28:57.676Z,90
2023-04-23T17:30:38.028Z,135
2023-04-23T17:32:18.580Z,112.5
2023-04-23T17:33:58.909Z,112.5
2023-04-23T17:35:39.369Z,112.5
2023-04-23T17:37:19.745Z,112.5
2023-04-23T17:39:00.081Z,112.5
2023-04-23T17:40:40.518Z,112.5
2023-04-23T17:42:20.938Z,112.5
2023-04-23T17:44:01.356Z,112.5
2023-04-23T17:45:41.782Z,112.5
2023-04-23T17:47:22.180Z,112.5
2023-04-23T17:49:02.534Z,112.5
2023-04-23T17:50:42.962Z,112.5
2023-04-23T17:52:23.414Z,112.5
2023-04-23T17:54:03.828Z,112.5
2023-04-23T17:55:44.187Z,112.5
2023-04-23T17:57:24.568Z,112.5
2023-04-23T17:59:04.949Z,157.5
2023-04-23T18:00:45.463Z,180
2023-04-23T18:02:25.921Z,112.5
2023-04-23T18:04:06.421Z,112.5
2023-04-23T18:05:46.674Z,67.5
2023-04-23T18:07:27.071Z,112.5
2023-04-23T18:09:07.499Z,112.5
2023-04-23T18:10:47.891Z,90
2023-04-23T18:12:28.316Z,135
2023-04-23T18:14:08.734Z,112.5
2023-04-23T18:15:49.164Z,180
2023-04-23T18:17:29.565Z,112.5
2023-04-23T18:19:09.974Z,180
2023-04-23T18:20:50.392Z,135
2023-04-23T18:22:30.756Z,112.5
2023-04-23T18:24:11.101Z,112.5
2023-04-23T18:25:51.446Z,90
2023-04-23T18:27:34.046Z,112.5
2023-04-23T18:29:12.266Z,112.5
2023-04-23T18:30:52.733Z,112.5
2023-04-23T18:32:34.749Z,112.5
2023-04-23T18:34:13.566Z,112.5
2023-04-23T18:35:53.927Z,112.5
2023-04-23T18:37:34.300Z,112.5
2023-04-23T18:39:14.785Z,90
2023-04-23T18:40:55.149Z,112.5
2023-04-23T18:42:35.551Z,112.5
2023-04-23T18:44:15.928Z,112.5
2023-04-23T18:45:56.484Z,112.5
2023-04-23T18:47:36.887Z,112.5
2023-04-23T18:49:17.130Z,112.5
2023-04-23T18:50:57.650Z,112.5
2023-04-23T18:52:38.114Z,112.5
2023-04-23T18:54:18.540Z,112.5
2023-04-23T18:55:58.906Z,112.5
2023-04-23T18:57:39.363Z,135
2023-04-23T18:59:19.833Z,135
2023-04-23T19:01:00.181Z,135
2023-04-23T19:02:40.621Z,135
2023-04-23T19:04:21.030Z,112.5
2023-04-23T19:06:01.254Z,135
2023-04-23T19:07:41.663Z,112.5
2023-04-23T19:09:22.032Z,112.5
2023-04-23T19:11:02.453Z,90
2023-04-23T19:12:42.891Z,67.5
2023-04-23T19:14:23.329Z,112.5
2023-04-23T19:16:03.843Z,112.5
2023-04-23T19:17:44.284Z,135
2023-04-23T19:19:24.727Z,112.5
2023-04-23T19:21:05.165Z,112.5
2023-04-23T19:22:45.585Z,135
2023-04-23T19:24:26.026Z,112.5
2023-04-23T19:26:06.307Z,112.5
2023-04-23T19:27:46.617Z,112.5
2023-04-23T19:29:27.023Z,112.5
2023-04-23T19:31:07.473Z,135
2023-04-23T19:32:47.875Z,157.5
2023-04-23T19:34:28.293Z,112.5
2023-04-23T19:36:08.614Z,112.5
2023-04-23T19:37:49.002Z,202.5
2023-04-23T19:39:29.449Z,247.5
2023-04-23T19:41:09.793Z,202.5
2023-04-23T19:42:50.257Z,180
2023-04-23T19:44:30.713Z,180
2023-04-23T19:46:11.105Z,180
2023-04-23T19:47:51.628Z,180
2023-04-23T19:49:32.008Z,202.5
2023-04-23T19:51:12.403Z,180
2023-04-23T19:52:52.850Z,180
2023-04-23T19:54:33.254Z,180
2023-04-23T19:56:13.584Z,202.5
2023-04-23T19:57:53.995Z,202.5
2023-04-23T19:59:34.411Z,180
2023-04-23T20:01:14.750Z,157.5
2023-04-23T20:02:55.164Z,157.5
2023-04-23T20:04:35.345Z,180
2023-04-23T20:06:15.689Z,135
2023-04-23T20:07:56.099Z,135
2023-04-23T20:09:36.547Z,180
2023-04-23T20:11:16.927Z,157.5
2023-04-23T20:12:57.324Z,135
2023-04-23T20:14:37.740Z,112.5
2023-04-23T20:16:18.124Z,135
2023-04-23T20:17:58.555Z,135
2023-04-23T20:19:38.890Z,135
2023-04-23T20:21:19.235Z,112.5
2023-04-23T20:22:59.698Z,112.5
2023-04-23T20:24:40.071Z,112.5
2023-04-23T20:26:20.433Z,135
2023-04-23T20:28:00.782Z,180
2023-04-23T20:29:41.551Z,135
2023-04-23T20:31:21.540Z,112.5
2023-04-23T20:33:01.989Z,112.5
2023-04-23T20:34:42.333Z,157.5
2023-04-23T20:36:22.664Z,135
2023-04-23T20:38:03.110Z,157.5
2023-04-23T20:39:43.959Z,157.5
2023-04-23T20:41:23.902Z,112.5
2023-04-23T20:43:04.308Z,157.5
2023-04-23T20:44:44.616Z,112.5
2023-04-23T20:46:24.992Z,157.5
2023-04-23T20:48:05.379Z,112.5
2023-04-23T20:49:45.522Z,157.5
2023-04-23T20:51:25.834Z,135
2023-04-23T20:53:06.219Z,135
2023-04-23T20:54:46.532Z,112.5
2023-04-23T20:56:26.924Z,135
2023-04-23T20:58:07.310Z,135
2023-04-23T20:59:47.748Z,112.5
2023-04-23T21:01:28.154Z,90
2023-04-23T21:03:08.653Z,112.5
2023-04-23T21:04:49.039Z,112.5
2023-04-23T21:06:29.336Z,112.5
2023-04-23T21:08:09.739Z,112.5
2023-04-23T21:09:50.205Z,135
2023-04-23T21:11:30.577Z,135
2023-04-23T21:13:11.016Z,135
2023-04-23T21:14:51.409Z,135
2023-04-23T21:16:31.998Z,112.5
2023-04-23T21:18:12.361Z,112.5
2023-04-23T21:19:52.763Z,112.5
2023-04-23T21:21:33.209Z,112.5
2023-04-23T21:23:13.551Z,112.5
2023-04-23T21:24:53.861Z,112.5
2023-04-23T21:26:34.157Z,135
2023-04-23T21:28:14.462Z,112.5
2023-04-23T21:29:54.749Z,112.5
2023-04-23T21:31:35.093Z,135
2023-04-23T21:33:15.378Z,112.5
2023-04-23T21:34:55.671Z,135
2023-04-23T21:36:35.988Z,135
2023-04-23T21:38:16.420Z,112.5
2023-04-23T21:39:56.933Z,112.5
2023-04-23T21:41:37.388Z,112.5
2023-04-23T21:43:17.833Z,112.5
2023-04-23T21:44:58.298Z,112.5
2023-04-23T21:46:38.719Z,157.5
2023-04-23T21:48:19.052Z,157.5
2023-04-23T21:49:59.495Z,112.5
2023-04-23T21:51:39.927Z,112.5
2023-04-23T21:53:20.370Z,135
2023-04-23T21:55:00.876Z,112.5
2023-04-23T21:56:41.359Z,135
2023-04-23T21:58:21.775Z,157.5
2023-04-23T22:00:02.225Z,180
2023-04-23T22:01:42.552Z,157.5
2023-04-23T22:03:32.494Z,135
2023-04-23T22:05:03.201Z,112.5
2023-04-23T22:06:43.632Z,157.5
2023-04-23T22:08:23.970Z,112.5
2023-04-23T22:10:04.487Z,112.5
2023-04-23T22:12:00.783Z,112.5
2023-04-23T22:13:25.210Z,135
2023-04-23T22:15:05.572Z,112.5
2023-04-23T22:16:46.025Z,112.5
2023-04-23T22:18:26.419Z,135
2023-04-23T22:20:06.842Z,135
2023-04-23T22:21:47.258Z,180
2023-04-23T22:23:27.621Z,135